Time;durP1;ratioP1;P1;durP2;ratioP2;P2;SDS_P1;SDS_P2;PMS_P1;PMS_P2;Temp;Humidity;BMP_temperature;BMP_pressure;BME280_temperature;BME280_humidity;BME280_pressure;Samples;Min_cycle;Max_cycle;Signal;HPM_P1;HPM_P2
2021/05/31 00:00:27;;;;;;;6.13;5.23;;;12.70;99.80;;;;;;5070908;28;20474;-89
2021/05/31 00:02:54;;;;;;;13.00;5.10;;;12.50;99.80;;;;;;5070765;28;20466;-89
2021/05/31 00:05:25;;;;;;;5.67;5.07;;;12.40;99.80;;;;;;5070848;28;20435;-88
2021/05/31 00:07:53;;;;;;;6.67;5.10;;;12.30;99.80;;;;;;5068208;28;20570;-89
2021/05/31 00:10:23;;;;;;;6.43;5.07;;;12.30;99.80;;;;;;5070715;28;20940;-88
2021/05/31 00:12:51;;;;;;;9.30;5.37;;;12.20;99.80;;;;;;5076585;28;20458;-89
2021/05/31 00:15:18;;;;;;;5.10;4.60;;;12.10;99.80;;;;;;5070025;28;20451;-88
2021/05/31 00:17:48;;;;;;;8.17;4.93;;;12.00;99.80;;;;;;5070471;28;22311;-87
2021/05/31 00:20:17;;;;;;;6.63;5.40;;;11.90;99.80;;;;;;5069874;28;20478;-88
2021/05/31 00:22:46;;;;;;;5.50;5.00;;;11.80;99.80;;;;;;5070619;28;20446;-88
2021/05/31 00:25:14;;;;;;;8.10;6.30;;;11.80;99.80;;;;;;5058374;28;20451;-88
2021/05/31 00:27:42;;;;;;;7.60;5.07;;;11.80;99.80;;;;;;5069114;28;20477;-88
2021/05/31 00:30:12;;;;;;;6.13;5.00;;;11.70;99.80;;;;;;5070367;28;20537;-88
2021/05/31 00:32:40;;;;;;;6.43;5.23;;;11.70;99.80;;;;;;5070400;28;20442;-88
2021/05/31 00:35:09;;;;;;;6.63;5.00;;;11.70;99.80;;;;;;5070534;28;20439;-88
2021/05/31 00:37:37;;;;;;;7.07;5.23;;;11.70;99.80;;;;;;5050104;28;20443;-87
2021/05/31 00:40:07;;;;;;;6.73;5.17;;;11.70;99.80;;;;;;5058358;28;20500;-87
2021/05/31 00:42:35;;;;;;;6.50;4.83;;;11.60;99.80;;;;;;5069904;28;20474;-88
2021/05/31 00:45:05;;;;;;;8.27;5.20;;;11.60;99.80;;;;;;5070253;28;20439;-88
2021/05/31 00:47:32;;;;;;;9.77;5.30;;;11.60;99.80;;;;;;5070406;28;20457;-88
2021/05/31 00:50:00;;;;;;;8.50;5.87;;;11.60;99.80;;;;;;5043435;28;20838;-88
2021/05/31 00:52:28;;;;;;;6.37;4.90;;;11.50;99.80;;;;;;5066232;28;20523;-88
2021/05/31 00:54:55;;;;;;;7.30;5.47;;;11.50;99.80;;;;;;5063530;28;20481;-88
2021/05/31 00:57:24;;;;;;;6.30;4.57;;;11.40;99.80;;;;;;5058230;28;20477;-87
2021/05/31 00:59:51;;;;;;;7.53;5.10;;;11.30;99.80;;;;;;5049501;28;20466;-88
2021/05/31 01:02:19;;;;;;;8.43;5.03;;;11.30;99.80;;;;;;5062102;28;20478;-87
2021/05/31 01:04:46;;;;;;;5.50;4.40;;;11.30;99.80;;;;;;5053314;28;21173;-88
2021/05/31 01:07:20;;;;;;;8.63;5.27;;;11.20;99.80;;;;;;5062850;28;21284;-87
2021/05/31 01:10:00;;;;;;;6.80;5.53;;;11.30;99.80;;;;;;5054137;28;21034;-87
2021/05/31 01:12:34;;;;;;;8.43;5.23;;;11.30;99.80;;;;;;5038901;28;20885;-87
2021/05/31 01:15:10;;;;;;;6.97;5.63;;;11.20;99.80;;;;;;5039873;28;20483;-88
2021/05/31 01:17:46;;;;;;;7.17;6.17;;;11.20;99.80;;;;;;5037273;28;20468;-87
2021/05/31 01:20:35;;;;;;;5.73;5.10;;;11.10;99.80;;;;;;5060189;28;20535;-88
2021/05/31 01:23:07;;;;;;;6.03;4.53;;;11.10;99.80;;;;;;5051387;28;20476;-88
2021/05/31 01:25:44;;;;;;;12.57;5.30;;;11.00;99.80;;;;;;5060514;28;20542;-88
2021/05/31 01:28:46;;;;;;;8.43;5.73;;;11.00;99.80;;;;;;5046649;28;20486;-88
2021/05/31 01:31:18;;;;;;;7.50;5.33;;;11.00;99.80;;;;;;5046815;28;20830;-88
2021/05/31 01:33:48;;;;;;;7.80;5.77;;;10.90;99.80;;;;;;5059452;28;20469;-88
2021/05/31 01:36:16;;;;;;;7.97;5.67;;;10.80;99.80;;;;;;5058597;28;20456;-88
2021/05/31 01:38:44;;;;;;;6.00;4.90;;;10.80;99.80;;;;;;5035532;28;20470;-87
2021/05/31 01:41:13;;;;;;;9.50;5.17;;;10.70;99.80;;;;;;5042802;28;20486;-88
2021/05/31 01:43:44;;;;;;;5.93;4.90;;;10.70;99.80;;;;;;5040247;28;20473;-88
2021/05/31 01:46:12;;;;;;;9.83;5.07;;;10.70;99.80;;;;;;5038857;28;20474;-88
2021/05/31 01:48:42;;;;;;;9.13;4.80;;;10.70;99.80;;;;;;5046360;28;20496;-88
2021/05/31 01:51:11;;;;;;;7.17;4.90;;;10.70;99.80;;;;;;5045703;28;20475;-88
2021/05/31 01:53:40;;;;;;;9.20;5.27;;;10.80;99.80;;;;;;5043303;28;20469;-88
2021/05/31 01:56:08;;;;;;;5.33;4.77;;;10.80;99.80;;;;;;5065080;28;20471;-88
2021/05/31 01:58:39;;;;;;;6.70;5.17;;;10.70;99.80;;;;;;5055380;28;20483;-87
2021/05/31 02:01:06;;;;;;;6.20;5.20;;;10.70;99.80;;;;;;5082040;28;20863;-88
2021/05/31 02:03:34;;;;;;;8.40;4.87;;;10.70;99.80;;;;;;5064024;28;20538;-88
2021/05/31 02:06:03;;;;;;;5.20;4.63;;;10.70;99.80;;;;;;5070596;28;20986;-87
2021/05/31 02:08:31;;;;;;;6.90;4.97;;;10.60;99.80;;;;;;5062668;28;20473;-88
2021/05/31 02:11:07;;;;;;;9.90;5.40;;;10.60;99.80;;;;;;5064420;28;20450;-88
2021/05/31 02:13:40;;;;;;;6.97;5.67;;;10.60;99.80;;;;;;5063271;28;20948;-87
2021/05/31 02:16:17;;;;;;;6.60;5.07;;;10.50;99.80;;;;;;5068640;28;20439;-87
2021/05/31 02:18:49;;;;;;;9.40;4.30;;;10.50;99.80;;;;;;5056084;28;20469;-87
2021/05/31 02:21:21;;;;;;;5.33;4.83;;;10.50;99.80;;;;;;5061039;28;20481;-88
2021/05/31 02:23:49;;;;;;;5.00;4.50;;;10.40;99.80;;;;;;5061003;28;20469;-87
2021/05/31 02:26:18;;;;;;;6.50;5.10;;;10.40;99.80;;;;;;5059441;28;20474;-88
2021/05/31 02:28:48;;;;;;;6.50;5.03;;;10.40;99.80;;;;;;5054302;28;20999;-87
2021/05/31 02:31:16;;;;;;;6.90;5.00;;;10.40;99.80;;;;;;5050500;28;20468;-88
2021/05/31 02:33:45;;;;;;;5.77;5.20;;;10.40;99.80;;;;;;5071715;28;20531;-87
2021/05/31 02:36:13;;;;;;;7.17;4.77;;;10.40;99.80;;;;;;5059375;28;20480;-88
2021/05/31 02:38:42;;;;;;;7.00;4.77;;;10.40;99.80;;;;;;5053792;28;20474;-87
2021/05/31 02:41:11;;;;;;;7.47;4.60;;;10.30;99.80;;;;;;5056990;28;20866;-87
2021/05/31 02:43:38;;;;;;;7.13;5.10;;;10.30;99.80;;;;;;5042160;28;20502;-87
2021/05/31 02:46:06;;;;;;;5.10;4.40;;;10.30;99.80;;;;;;5042380;28;21077;-88
2021/05/31 02:48:34;;;;;;;5.47;4.63;;;10.20;99.80;;;;;;5037371;28;20493;-88
2021/05/31 02:51:02;;;;;;;5.93;5.33;;;10.20;99.80;;;;;;5038560;28;20481;-88
2021/05/31 02:53:31;;;;;;;11.47;5.50;;;10.20;99.80;;;;;;5030454;28;20470;-88
2021/05/31 02:56:01;;;;;;;9.67;5.53;;;10.10;99.80;;;;;;5033772;28;20475;-88
2021/05/31 02:58:29;;;;;;;6.60;4.70;;;10.10;99.80;;;;;;5027495;28;20483;-88
2021/05/31 03:00:56;;;;;;;5.60;5.00;;;10.10;99.80;;;;;;5027512;28;20864;-88
2021/05/31 03:03:24;;;;;;;8.33;5.40;;;10.10;99.80;;;;;;5040238;28;20892;-87
2021/05/31 03:05:51;;;;;;;12.27;5.07;;;10.10;99.80;;;;;;5042379;28;20482;-87
2021/05/31 03:08:19;;;;;;;5.87;5.27;;;10.10;99.80;;;;;;5055283;28;20474;-87
2021/05/31 03:10:46;;;;;;;7.00;5.13;;;10.30;99.80;;;;;;5061210;28;20531;-87
2021/05/31 03:13:15;;;;;;;6.70;4.97;;;10.40;99.80;;;;;;5036834;28;21204;-88
2021/05/31 03:15:43;;;;;;;11.87;6.17;;;10.50;99.80;;;;;;5039200;28;20468;-87
2021/05/31 03:18:10;;;;;;;5.03;4.53;;;10.60;99.80;;;;;;5060428;28;20483;-87
2021/05/31 03:20:38;;;;;;;5.10;4.10;;;10.60;99.80;;;;;;5062486;28;20474;-88
2021/05/31 03:23:05;;;;;;;10.90;5.90;;;10.80;99.80;;;;;;5053438;28;20465;-87
2021/05/31 03:25:33;;;;;;;8.33;5.10;;;10.80;99.80;;;;;;5054109;28;20882;-88
2021/05/31 03:28:00;;;;;;;10.17;5.43;;;10.90;99.80;;;;;;5057326;28;20469;-87
2021/05/31 03:30:29;;;;;;;8.53;5.40;;;10.90;99.80;;;;;;5056592;28;20501;-88
2021/05/31 03:32:57;;;;;;;5.47;4.97;;;10.90;99.80;;;;;;5060316;28;20493;-87
2021/05/31 03:35:25;;;;;;;6.70;5.37;;;10.90;99.80;;;;;;5065301;28;20962;-87
2021/05/31 03:37:53;;;;;;;8.13;5.87;;;11.00;99.80;;;;;;5056839;28;20482;-87
2021/05/31 03:40:22;;;;;;;6.77;5.60;;;11.00;99.80;;;;;;5059133;28;20489;-87
2021/05/31 03:42:50;;;;;;;6.27;5.63;;;11.00;99.80;;;;;;5044104;28;20473;-87
2021/05/31 03:45:19;;;;;;;9.00;5.73;;;11.00;99.80;;;;;;5057361;28;22324;-87
2021/05/31 03:47:48;;;;;;;8.50;4.83;;;11.00;99.80;;;;;;5050392;28;20483;-88
2021/05/31 03:50:16;;;;;;;7.93;5.90;;;11.00;99.80;;;;;;5038874;28;20481;-87
2021/05/31 03:52:44;;;;;;;9.83;5.73;;;11.10;99.80;;;;;;5030080;28;20477;-88
2021/05/31 03:55:13;;;;;;;7.00;5.10;;;11.10;99.80;;;;;;5029114;28;20486;-88
2021/05/31 03:57:40;;;;;;;8.60;4.90;;;11.10;99.80;;;;;;5036235;28;20475;-87
2021/05/31 04:00:11;;;;;;;10.27;4.97;;;11.20;99.80;;;;;;5034352;28;20557;-88
2021/05/31 04:02:39;;;;;;;6.67;5.10;;;11.20;99.80;;;;;;5008690;28;20517;-87
2021/05/31 04:05:12;;;;;;;5.23;4.60;;;11.30;99.80;;;;;;5029585;28;20999;-87
2021/05/31 04:13:17;;;;;;;9.20;5.50;;;11.30;99.80;;;;;;5071700;28;20498;-95
2021/05/31 04:15:45;;;;;;;10.23;5.80;;;11.40;99.80;;;;;;5063802;28;20478;-94
2021/05/31 04:18:12;;;;;;;6.40;5.20;;;11.40;99.80;;;;;;5065014;28;20493;-96
2021/05/31 04:20:42;;;;;;;10.33;6.20;;;11.40;99.80;;;;;;5070583;28;20494;-94
2021/05/31 04:23:12;;;;;;;10.73;6.13;;;11.40;99.80;;;;;;5062917;28;20523;-93
2021/05/31 04:25:39;;;;;;;10.40;6.20;;;11.50;99.80;;;;;;5058400;28;20475;-92
2021/05/31 04:28:07;;;;;;;12.90;6.27;;;11.50;99.80;;;;;;5058364;28;20455;-93
2021/05/31 04:30:35;;;;;;;9.20;6.70;;;11.50;99.80;;;;;;5082025;28;20460;-95
2021/05/31 04:33:03;;;;;;;6.70;5.73;;;11.50;99.80;;;;;;5062881;28;20462;-96
2021/05/31 04:35:30;;;;;;;9.80;6.07;;;11.50;99.80;;;;;;5065429;28;20489;-95
2021/05/31 04:37:59;;;;;;;14.23;6.40;;;11.50;99.80;;;;;;5056609;28;20481;-96
2021/05/31 04:40:27;;;;;;;10.53;6.50;;;11.50;99.80;;;;;;5061620;28;20459;-96
2021/05/31 04:42:55;;;;;;;10.07;6.70;;;11.60;99.80;;;;;;5055353;28;20447;-94
2021/05/31 04:45:23;;;;;;;8.77;6.33;;;11.50;99.80;;;;;;5055373;28;20462;-94
2021/05/31 04:47:52;;;;;;;6.13;5.53;;;11.50;99.80;;;;;;5065104;28;20697;-95
2021/05/31 04:50:19;;;;;;;8.30;5.87;;;11.50;99.80;;;;;;5067497;28;20505;-92
2021/05/31 04:52:47;;;;;;;13.17;5.93;;;11.50;99.80;;;;;;5068937;28;20531;-96
2021/05/31 04:55:17;;;;;;;9.30;6.17;;;11.60;99.80;;;;;;5066503;28;20449;-93
2021/05/31 04:57:45;;;;;;;8.00;6.20;;;11.70;99.80;;;;;;5067951;28;20462;-92
2021/05/31 05:00:15;;;;;;;9.50;6.60;;;11.70;99.80;;;;;;5067336;28;20486;-96
2021/05/31 05:02:44;;;;;;;8.03;5.37;;;11.70;99.80;;;;;;5077245;28;20472;-94
2021/05/31 05:05:13;;;;;;;10.00;5.70;;;11.80;99.80;;;;;;5056864;28;20474;-86
2021/05/31 05:07:45;;;;;;;9.50;6.70;;;11.80;99.80;;;;;;5033809;28;20485;-88
2021/05/31 05:10:19;;;;;;;9.40;6.30;;;11.80;99.80;;;;;;5040076;28;20463;-88
2021/05/31 05:12:48;;;;;;;7.57;6.07;;;11.90;99.80;;;;;;5040699;28;20484;-89
2021/05/31 05:15:16;;;;;;;13.93;5.77;;;11.90;99.80;;;;;;5023887;28;20468;-89
2021/05/31 05:17:45;;;;;;;8.40;6.03;;;11.90;99.80;;;;;;5020302;28;20474;-88
2021/05/31 05:20:17;;;;;;;7.70;6.30;;;11.90;99.80;;;;;;5048636;28;20984;-88
2021/05/31 05:22:45;;;;;;;6.63;5.37;;;12.00;99.80;;;;;;5061887;28;20474;-89
2021/05/31 05:25:15;;;;;;;8.03;5.30;;;12.10;99.80;;;;;;5065298;28;20466;-89
2021/05/31 05:27:44;;;;;;;6.13;4.70;;;12.10;99.80;;;;;;5041264;28;20471;-88
2021/05/31 05:30:17;;;;;;;6.67;5.77;;;12.20;99.80;;;;;;5053135;28;20554;-88
2021/05/31 05:32:48;;;;;;;8.80;6.10;;;12.30;99.80;;;;;;5043119;28;20475;-88
2021/05/31 05:35:22;;;;;;;7.73;5.73;;;12.40;99.80;;;;;;5028720;28;20477;-89
2021/05/31 05:38:07;;;;;;;6.27;5.50;;;12.50;99.80;;;;;;5025031;28;20478;-89
2021/05/31 05:46:24;;;;;;;10.90;6.17;;;12.70;99.80;;;;;;5058773;28;20467;-89
2021/05/31 05:48:57;;;;;;;7.80;5.67;;;12.80;99.80;;;;;;5063126;28;20496;-89
2021/05/31 05:51:24;;;;;;;7.53;5.63;;;12.90;99.80;;;;;;5068664;28;20483;-88
2021/05/31 05:53:52;;;;;;;7.80;5.50;;;13.00;99.80;;;;;;5071073;28;20470;-89
2021/05/31 05:56:22;;;;;;;6.47;5.37;;;13.10;99.80;;;;;;5063602;28;20465;-89
2021/05/31 05:58:52;;;;;;;6.13;5.03;;;13.20;99.80;;;;;;5054540;28;20500;-89
2021/05/31 06:01:20;;;;;;;6.67;5.80;;;13.20;99.80;;;;;;5038728;28;20478;-88
2021/05/31 06:03:51;;;;;;;5.73;5.17;;;13.20;99.80;;;;;;5050232;28;20474;-88
2021/05/31 06:06:19;;;;;;;6.60;5.90;;;13.30;99.80;;;;;;5029601;28;20471;-89
2021/05/31 06:08:47;;;;;;;7.10;5.00;;;13.40;99.80;;;;;;5045246;28;21124;-89
2021/05/31 06:11:14;;;;;;;6.70;5.53;;;13.50;99.80;;;;;;5040117;28;20471;-88
2021/05/31 06:13:43;;;;;;;6.40;5.00;;;13.60;99.80;;;;;;5036229;28;20483;-89
2021/05/31 06:16:11;;;;;;;5.40;4.90;;;13.70;99.80;;;;;;5042609;28;20478;-88
2021/05/31 06:18:39;;;;;;;6.33;5.30;;;13.80;99.80;;;;;;5035778;28;20504;-88
2021/05/31 06:21:07;;;;;;;7.60;4.93;;;13.80;99.80;;;;;;5033675;28;20479;-89
2021/05/31 06:23:34;;;;;;;7.90;5.80;;;13.90;99.80;;;;;;5026834;28;20468;-88
2021/05/31 06:26:02;;;;;;;8.10;6.00;;;14.00;99.80;;;;;;5035123;28;20846;-89
2021/05/31 06:28:30;;;;;;;8.47;5.50;;;14.10;99.80;;;;;;5028532;28;21032;-87
2021/05/31 06:30:59;;;;;;;7.43;5.63;;;14.20;99.80;;;;;;5026473;28;20481;-88
2021/05/31 06:33:26;;;;;;;7.03;5.00;;;14.30;99.80;;;;;;5022939;28;20468;-88
2021/05/31 06:35:55;;;;;;;5.73;5.23;;;14.40;99.80;;;;;;5027713;28;20995;-88
2021/05/31 06:38:23;;;;;;;6.73;5.13;;;14.40;99.80;;;;;;5026075;28;21045;-88
2021/05/31 06:40:51;;;;;;;8.70;5.27;;;14.60;99.80;;;;;;5020415;28;20468;-88
2021/05/31 06:43:18;;;;;;;6.60;5.07;;;14.60;99.80;;;;;;5014646;28;20468;-89
2021/05/31 06:45:46;;;;;;;8.30;5.87;;;14.70;99.80;;;;;;5018814;28;20469;-89
2021/05/31 06:48:15;;;;;;;5.87;4.97;;;14.80;98.50;;;;;;5037352;28;20471;-88
2021/05/31 06:50:45;;;;;;;4.33;4.03;;;14.90;99.10;;;;;;5041891;28;20463;-88
2021/05/31 06:53:12;;;;;;;5.07;4.27;;;15.00;98.30;;;;;;5035841;28;20476;-88
2021/05/31 06:55:41;;;;;;;4.60;4.20;;;15.20;97.60;;;;;;5045403;28;20485;-88
2021/05/31 06:58:09;;;;;;;5.30;3.90;;;15.30;97.70;;;;;;5040553;28;20475;-87
2021/05/31 07:00:39;;;;;;;7.40;4.83;;;15.40;96.40;;;;;;5034430;28;20470;-88
2021/05/31 07:03:09;;;;;;;4.97;4.47;;;15.40;96.60;;;;;;5060211;28;21306;-88
2021/05/31 07:05:37;;;;;;;7.70;4.50;;;15.50;96.60;;;;;;5044959;28;20463;-88
2021/05/31 07:08:06;;;;;;;4.57;3.80;;;15.60;95.80;;;;;;5048017;28;20474;-88
2021/05/31 07:10:33;;;;;;;4.83;3.83;;;15.70;96.10;;;;;;5048253;28;20460;-88
2021/05/31 07:13:02;;;;;;;5.70;5.20;;;15.80;96.20;;;;;;5039452;28;20474;-88
2021/05/31 07:15:32;;;;;;;4.50;4.10;;;15.90;95.80;;;;;;5045816;28;21294;-88
2021/05/31 07:18:00;;;;;;;6.63;4.20;;;15.90;95.80;;;;;;5037293;28;20472;-88
2021/05/31 07:20:27;;;;;;;6.40;4.20;;;16.00;96.50;;;;;;5039018;28;20485;-88
2021/05/31 07:22:56;;;;;;;4.70;4.17;;;16.10;94.80;;;;;;5050227;28;20486;-89
2021/05/31 07:25:24;;;;;;;4.93;3.70;;;16.20;94.40;;;;;;5040360;28;20460;-88
2021/05/31 07:27:54;;;;;;;4.83;4.10;;;16.30;93.20;;;;;;5031879;28;20474;-88
2021/05/31 07:30:22;;;;;;;6.63;4.00;;;16.40;93.60;;;;;;5059872;28;21028;-88
2021/05/31 07:32:50;;;;;;;9.37;4.27;;;16.40;91.00;;;;;;5062805;28;21012;-88
2021/05/31 07:35:17;;;;;;;5.50;3.90;;;16.50;91.70;;;;;;5054541;28;20969;-88
2021/05/31 07:37:45;;;;;;;4.20;3.70;;;16.50;89.60;;;;;;5048004;28;21241;-88
2021/05/31 07:40:17;;;;;;;4.57;3.90;;;16.60;90.30;;;;;;5045146;28;20467;-88
2021/05/31 07:42:45;;;;;;;5.53;4.80;;;16.70;91.60;;;;;;5042806;28;20469;-88
2021/05/31 07:45:15;;;;;;;4.90;4.40;;;16.80;89.00;;;;;;5034552;28;20472;-87
2021/05/31 07:47:42;;;;;;;6.63;3.97;;;16.90;87.60;;;;;;5033191;28;20475;-88
2021/05/31 07:50:11;;;;;;;4.57;4.00;;;17.00;88.40;;;;;;5062121;28;20509;-88
2021/05/31 07:52:39;;;;;;;4.43;3.53;;;17.00;87.20;;;;;;5061164;28;20471;-88
2021/05/31 07:55:11;;;;;;;3.77;3.37;;;17.10;86.60;;;;;;5045372;28;20854;-89
2021/05/31 07:57:43;;;;;;;4.30;3.60;;;17.20;86.90;;;;;;5058347;28;20572;-88
2021/05/31 08:00:15;;;;;;;3.77;3.47;;;17.30;87.00;;;;;;5036527;28;21024;-89
2021/05/31 08:02:44;;;;;;;6.50;4.23;;;17.40;85.90;;;;;;5057184;28;20571;-89
2021/05/31 08:05:13;;;;;;;3.40;3.10;;;17.50;85.50;;;;;;5078087;28;20469;-88
2021/05/31 08:07:41;;;;;;;3.47;3.17;;;17.60;83.80;;;;;;5063332;28;20985;-89
2021/05/31 08:10:10;;;;;;;3.73;3.43;;;17.70;83.90;;;;;;5061448;28;20474;-89
2021/05/31 08:12:39;;;;;;;3.30;3.00;;;17.80;83.90;;;;;;5066504;28;20484;-89
2021/05/31 08:15:09;;;;;;;3.43;3.17;;;17.90;83.10;;;;;;5043227;28;20464;-88
2021/05/31 08:17:37;;;;;;;4.50;2.87;;;18.10;80.30;;;;;;5060385;28;20476;-88
2021/05/31 08:20:06;;;;;;;3.47;3.10;;;18.10;80.10;;;;;;5046264;28;20476;-89
2021/05/31 08:22:34;;;;;;;2.70;2.50;;;18.20;80.50;;;;;;5038320;28;20475;-89
2021/05/31 08:25:01;;;;;;;5.60;3.00;;;18.30;78.90;;;;;;5041156;28;20992;-88
2021/05/31 08:27:29;;;;;;;3.87;3.43;;;18.50;80.40;;;;;;5008340;28;20481;-89
2021/05/31 08:29:58;;;;;;;5.63;3.30;;;18.50;80.40;;;;;;5021777;28;20485;-89
2021/05/31 08:32:25;;;;;;;4.17;2.93;;;18.70;81.20;;;;;;5018311;28;20485;-89
2021/05/31 08:34:53;;;;;;;3.30;3.10;;;18.80;82.00;;;;;;5011706;28;21956;-89
2021/05/31 08:37:24;;;;;;;3.70;3.30;;;18.80;78.30;;;;;;5026159;28;20567;-89
2021/05/31 08:39:54;;;;;;;2.97;2.77;;;18.80;79.90;;;;;;5029652;28;20533;-89
2021/05/31 08:42:22;;;;;;;3.47;2.70;;;18.90;80.00;;;;;;5033297;28;20509;-89
2021/05/31 08:44:50;;;;;;;2.73;2.53;;;19.00;80.20;;;;;;5036974;28;20478;-89
2021/05/31 08:47:19;;;;;;;3.00;2.70;;;19.30;79.30;;;;;;5019940;28;20481;-89
2021/05/31 08:49:48;;;;;;;3.27;2.70;;;19.30;79.30;;;;;;5031039;28;20490;-89
2021/05/31 08:52:15;;;;;;;2.93;2.73;;;19.50;79.10;;;;;;5042796;28;20589;-90
2021/05/31 08:54:43;;;;;;;3.50;2.87;;;19.70;77.90;;;;;;5042689;28;20475;-89
2021/05/31 08:57:10;;;;;;;4.47;3.10;;;19.80;77.50;;;;;;5028986;28;20567;-89
2021/05/31 08:59:39;;;;;;;4.23;2.77;;;19.90;76.90;;;;;;5027179;28;20485;-89
2021/05/31 09:02:07;;;;;;;3.07;2.80;;;20.00;75.90;;;;;;5036086;28;20474;-89
2021/05/31 09:04:45;;;;;;;2.43;2.20;;;20.10;74.00;;;;;;5037702;28;20570;-88
2021/05/31 09:07:13;;;;;;;3.27;2.50;;;20.20;72.90;;;;;;5036183;28;20454;-88
2021/05/31 09:09:42;;;;;;;2.70;2.50;;;20.20;70.80;;;;;;5025996;28;20468;-89
2021/05/31 09:12:12;;;;;;;4.33;2.67;;;20.20;72.30;;;;;;5029659;28;20468;-89
2021/05/31 09:14:42;;;;;;;2.90;2.70;;;20.20;73.40;;;;;;5026448;28;20981;-89
2021/05/31 09:17:10;;;;;;;2.60;2.40;;;20.30;74.10;;;;;;5019769;28;21274;-89
2021/05/31 09:19:47;;;;;;;3.47;2.87;;;20.40;73.50;;;;;;5045562;28;20506;-89
2021/05/31 09:22:15;;;;;;;3.23;2.80;;;20.50;71.00;;;;;;5033523;28;21119;-89
2021/05/31 09:24:53;;;;;;;3.10;2.90;;;20.40;72.30;;;;;;5033111;28;20548;-89
2021/05/31 09:27:21;;;;;;;3.03;2.70;;;20.60;74.60;;;;;;5031313;28;20475;-89
2021/05/31 09:29:55;;;;;;;3.83;2.90;;;20.60;74.60;;;;;;5028252;28;20561;-89
2021/05/31 09:32:23;;;;;;;5.40;3.37;;;20.70;73.10;;;;;;5032800;28;20461;-89
2021/05/31 09:35:00;;;;;;;3.50;3.10;;;20.70;71.60;;;;;;5026830;28;20487;-90
2021/05/31 09:37:27;;;;;;;3.10;2.80;;;21.00;72.80;;;;;;5036609;28;21019;-89
2021/05/31 09:40:00;;;;;;;2.97;2.67;;;21.00;72.80;;;;;;5042933;28;20493;-90
2021/05/31 09:42:28;;;;;;;2.83;2.63;;;21.10;72.50;;;;;;5025432;28;20472;-90
2021/05/31 09:45:01;;;;;;;3.30;3.00;;;21.10;73.50;;;;;;5030401;28;20572;-89
2021/05/31 09:47:30;;;;;;;2.90;2.70;;;21.20;73.80;;;;;;5029661;28;20474;-90
2021/05/31 09:50:00;;;;;;;3.23;2.93;;;21.20;73.90;;;;;;5062326;28;20471;-86
2021/05/31 09:52:27;;;;;;;10.17;2.97;;;21.40;73.50;;;;;;5043138;28;20837;-90
2021/05/31 09:54:55;;;;;;;4.50;2.73;;;21.40;69.10;;;;;;5026373;28;20468;-89
2021/05/31 09:57:24;;;;;;;3.53;2.60;;;21.30;69.00;;;;;;5040328;28;20489;-91
2021/05/31 09:59:55;;;;;;;3.43;3.07;;;21.40;69.80;;;;;;5039223;28;21007;-89
2021/05/31 10:02:39;;;;;;;3.13;2.90;;;21.50;69.80;;;;;;5056058;28;21079;-89
2021/05/31 10:05:16;;;;;;;3.50;2.50;;;21.60;70.20;;;;;;5044445;28;20479;-90
2021/05/31 10:07:51;;;;;;;2.93;2.73;;;21.60;68.90;;;;;;5040336;28;20551;-90
2021/05/31 10:10:18;;;;;;;2.97;2.73;;;21.60;69.00;;;;;;5025680;28;20470;-90
2021/05/31 10:12:52;;;;;;;2.53;2.33;;;21.70;70.80;;;;;;5033310;28;20474;-90
2021/05/31 10:15:23;;;;;;;3.60;2.80;;;21.90;73.10;;;;;;5037363;28;20476;-89
2021/05/31 10:17:54;;;;;;;3.80;3.00;;;22.10;70.10;;;;;;5022457;28;20550;-90
2021/05/31 10:20:25;;;;;;;3.50;3.20;;;22.30;72.10;;;;;;5043780;28;20474;-90
2021/05/31 10:22:52;;;;;;;3.10;2.27;;;22.40;72.50;;;;;;5020105;28;20460;-90
2021/05/31 10:25:23;;;;;;;2.97;2.77;;;22.60;69.60;;;;;;5026643;28;20504;-90
2021/05/31 10:27:54;;;;;;;3.10;2.80;;;22.70;70.30;;;;;;5073020;27;20477;-91
2021/05/31 10:30:22;;;;;;;3.10;2.80;;;22.50;69.10;;;;;;5045109;28;20839;-90
2021/05/31 10:32:51;;;;;;;3.10;2.80;;;22.40;71.90;;;;;;5055859;28;20477;-90
2021/05/31 10:35:23;;;;;;;4.37;3.00;;;22.60;70.70;;;;;;5060484;28;20531;-90
2021/05/31 10:37:53;;;;;;;3.03;2.83;;;22.60;68.60;;;;;;5038865;28;21025;-92
2021/05/31 10:40:21;;;;;;;3.10;2.80;;;22.60;68.20;;;;;;5038780;28;20510;-91
2021/05/31 10:42:51;;;;;;;3.73;3.30;;;23.00;68.10;;;;;;5063878;28;20557;-90
2021/05/31 10:45:28;;;;;;;2.80;2.60;;;23.00;68.30;;;;;;5031390;28;20499;-90
2021/05/31 10:48:04;;;;;;;3.80;3.40;;;23.30;69.50;;;;;;5058327;27;21089;-90
2021/05/31 10:50:37;;;;;;;4.80;2.57;;;23.40;66.60;;;;;;5039965;28;20476;-91
2021/05/31 10:53:08;;;;;;;3.73;3.33;;;23.70;68.00;;;;;;5045708;28;20603;-90
2021/05/31 10:55:49;;;;;;;3.60;2.70;;;23.70;67.90;;;;;;5016857;28;20558;-90
2021/05/31 10:58:18;;;;;;;2.90;2.47;;;23.80;68.20;;;;;;5025741;28;20480;-90
2021/05/31 11:00:54;;;;;;;3.37;3.03;;;23.90;65.90;;;;;;5040763;28;20512;-90
2021/05/31 11:03:23;;;;;;;6.00;2.80;;;24.00;65.90;;;;;;5051618;28;20462;-90
2021/05/31 11:05:52;;;;;;;3.10;2.60;;;24.00;65.90;;;;;;5066893;28;20469;-90
2021/05/31 11:08:28;;;;;;;2.50;2.30;;;24.10;63.10;;;;;;5057858;28;20489;-91
2021/05/31 11:11:00;;;;;;;2.60;2.40;;;24.20;67.30;;;;;;5066748;28;21138;-91
2021/05/31 11:13:30;;;;;;;2.97;2.67;;;24.10;64.90;;;;;;5049801;28;20631;-91
2021/05/31 11:16:06;;;;;;;5.20;3.20;;;24.00;64.80;;;;;;5053212;28;20553;-90
2021/05/31 11:18:44;;;;;;;3.23;2.93;;;24.00;64.20;;;;;;5057062;28;20494;-90
2021/05/31 11:21:28;;;;;;;3.17;2.63;;;24.00;65.50;;;;;;5040518;28;20851;-90
2021/05/31 11:24:01;;;;;;;2.47;2.27;;;24.20;66.20;;;;;;5030793;28;21075;-90
2021/05/31 11:26:30;;;;;;;2.63;2.53;;;24.30;64.80;;;;;;5029745;28;20478;-90
2021/05/31 11:29:03;;;;;;;3.50;3.20;;;24.40;62.80;;;;;;5036575;28;20549;-90
2021/05/31 11:31:31;;;;;;;3.20;2.50;;;24.60;65.70;;;;;;5060358;28;21184;-90
2021/05/31 11:33:58;;;;;;;3.03;2.83;;;24.70;63.80;;;;;;5065089;28;20558;-90
2021/05/31 11:36:36;;;;;;;2.60;2.30;;;24.80;63.20;;;;;;5060423;28;20977;-90
2021/05/31 11:39:07;;;;;;;3.17;2.87;;;24.90;61.40;;;;;;5062527;28;21052;-91
2021/05/31 11:41:40;;;;;;;3.10;2.40;;;25.00;61.50;;;;;;5066206;28;20458;-90
2021/05/31 11:44:09;;;;;;;3.57;2.63;;;25.00;63.10;;;;;;5052852;28;20474;-91
2021/05/31 11:46:51;;;;;;;3.40;2.53;;;25.10;61.20;;;;;;5059184;28;20483;-91
2021/05/31 11:49:20;;;;;;;2.30;2.20;;;25.30;63.10;;;;;;5043975;28;20507;-90
2021/05/31 11:52:04;;;;;;;3.57;3.20;;;25.50;62.60;;;;;;5059220;28;20466;-87
2021/05/31 11:54:33;;;;;;;3.13;2.73;;;25.60;59.10;;;;;;5044963;28;21401;-87
2021/05/31 11:57:03;;;;;;;3.97;2.53;;;25.80;60.50;;;;;;5058589;28;20465;-88
2021/05/31 11:59:33;;;;;;;3.53;2.50;;;25.90;60.40;;;;;;5021800;28;20464;-85
2021/05/31 12:02:04;;;;;;;2.80;2.17;;;25.90;58.00;;;;;;5024226;28;20514;-86
2021/05/31 12:04:32;;;;;;;3.00;2.50;;;25.90;59.20;;;;;;5028579;28;20528;-85
2021/05/31 12:07:03;;;;;;;4.80;2.10;;;25.90;58.40;;;;;;5027131;28;20475;-86
2021/05/31 12:09:31;;;;;;;3.53;2.70;;;27.70;57.90;;;;;;5038449;28;20490;-86
2021/05/31 12:11:59;;;;;;;2.73;2.53;;;;;;;;;;5028203;28;20507;-86
2021/05/31 12:14:29;;;;;;;3.20;2.10;;;;;;;;;;5012295;28;20487;-86
2021/05/31 12:16:57;;;;;;;2.40;2.20;;;;;;;;;;5036160;28;20479;-87
2021/05/31 12:19:26;;;;;;;6.17;2.30;;;;;;;;;;5084108;28;20474;-90
2021/05/31 12:21:56;;;;;;;2.33;2.13;;;;;;;;;;5036840;28;21074;-90
2021/05/31 12:24:30;;;;;;;4.33;2.23;;;;;;;;;;5042855;28;21180;-89
2021/05/31 12:26:59;;;;;;;2.23;2.00;;;;;;;;;;5028642;28;20478;-89
2021/05/31 12:29:34;;;;;;;2.23;2.03;;;;;;;;;;5027413;28;20489;-90
2021/05/31 12:32:03;;;;;;;2.50;2.10;;;36.10;43.50;;;;;;5038175;28;20511;-88
2021/05/31 12:34:32;;;;;;;3.57;2.00;;;36.00;42.80;;;;;;5035863;28;20459;-89
2021/05/31 12:37:00;;;;;;;2.20;2.00;;;34.80;45.10;;;;;;5030789;28;20477;-88
2021/05/31 12:39:29;;;;;;;2.47;2.20;;;33.80;46.60;;;;;;5019576;28;20473;-89
2021/05/31 12:42:00;;;;;;;2.33;2.13;;;32.40;47.10;;;;;;5050709;28;20485;-90
2021/05/31 12:44:28;;;;;;;3.00;2.80;;;30.90;45.80;;;;;;5043056;28;20478;-86
2021/05/31 12:47:06;;;;;;;2.97;2.03;;;30.30;49.90;;;;;;5063841;27;21027;-92
2021/05/31 12:49:33;;;;;;;3.17;2.60;;;30.80;48.00;;;;;;5084900;28;20922;-85
2021/05/31 12:52:02;;;;;;;5.10;2.20;;;31.50;49.30;;;;;;5043721;28;20507;-84
2021/05/31 12:54:31;;;;;;;5.67;2.70;;;32.90;46.20;;;;;;5029464;28;20468;-87
2021/05/31 12:57:10;;;;;;;3.87;2.80;;;34.10;45.90;;;;;;5023162;28;20518;-87
2021/05/31 12:59:39;;;;;;;2.40;2.20;;;35.20;42.40;;;;;;5004946;28;20490;-86
2021/05/31 13:02:15;;;;;;;2.30;2.10;;;35.80;41.80;;;;;;5039501;28;20489;-85
2021/05/31 13:04:43;;;;;;;2.23;2.00;;;;;;;;;;5045267;28;20537;-85
2021/05/31 13:07:15;;;;;;;2.30;1.77;;;36.10;41.10;;;;;;5057396;28;20477;-85
2021/05/31 13:09:44;;;;;;;2.93;2.30;;;35.20;43.00;;;;;;5057184;28;20478;-85
2021/05/31 13:12:12;;;;;;;2.40;2.30;;;33.30;46.20;;;;;;5025983;28;20566;-86